Nearby METAR Reports

 

KSJC - San Jose, California, USA
Distance from station: NE 9mi, 14km
Updated: Sat, 01-Oct-2022 4:53am PDT
Clear
Clear
 Wind from SSE
Wind: SSE 7 mph , 11 km/h
Temperature: 57°F , 14°C
Dew Point: 54°F , 12°C
Humidity: 88%
Barometer: 29.83 inHg , 1010.2 hPa
Clouds: Clear
Visibility: 10 miles , 16 km
2022/10/01 11:53 KSJC 011153Z AUTO 16006KT 10SM CLR 14/12 A2983 RMK AO2 SLP100 T01390117 10183 20139 51001 $
KNUQ - Moffett Nas/Mtn, California, USA
Distance from station: N 9mi, 14km
Updated: Sat, 01-Oct-2022 4:55am PDT
Overcast
Overcast
 Wind from ESE
Wind: ESE 5 mph , 7 km/h
Temperature: 61°F , 16°C
Dew Point: 55°F , 13°C
Humidity: 83%
Barometer: 29.83 inHg , 1010.2 hPa
Clouds: Overcast
Visibility: 10 miles , 16 km
Cloud details: Overcast 1000 ft
2022/10/01 11:55 KNUQ 011155Z AUTO 12004KT 10SM OVC010 16/13 A2983 RMK AO2
KPAO - Palo Alto, California, USA
Distance from station: NNW 14mi, 23km
Updated: Fri, 30-Sep-2022 8:47pm PDT
NOT Current
Clear
Clear
 Wind from NW
Wind: NW 7 mph , 11 km/h
Temperature: 63°F , 17°C
Dew Point: 57°F , 14°C
Humidity: 83%
Barometer: 29.80 inHg , 1009.1 hPa
Clouds: Clear
Visibility: 10 miles , 16 km
2022/10/01 03:47 KPAO 010347Z 32006KT 10SM SKC 17/14 A2980 RMK LAST
 
KRHV - San Jose/Reid, California, USA
Distance from station: ENE 12mi, 19km
Updated: Fri, 30-Sep-2022 9:55pm PDT
NOT Current
Clear
Clear
 Wind from SSW
Wind: SSW 3 mph , 6 km/h
Temperature: 66°F , 19°C
Dew Point: 54°F , 12°C
Humidity: 64%
Barometer: 29.81 inHg , 1009.5 hPa
Clouds: Clear
Visibility: 10 miles , 16 km
2022/10/01 04:55 KRHV 010455Z 20003KT 10SM SKC 19/12 A2981 RMK LAST
KOAK - Oakland, California, USA
Distance from station: NNW 31mi, 50km
Updated: Sat, 01-Oct-2022 4:53am PDT
Overcast
Overcast
 Wind from N
Wind: N 3 mph , 6 km/h
Temperature: 57°F , 14°C
Dew Point: 55°F , 13°C
Humidity: 94%
Barometer: 29.84 inHg , 1010.5 hPa
Clouds: Overcast
Visibility: 10 miles , 16 km
Cloud details: Few Clouds 300 ft
Overcast 700 ft
2022/10/01 11:53 KOAK 011153Z 36003KT 10SM FEW003 OVC007 14/13 A2984 RMK AO2 SLP102 T01440128 10144 20139 51002
KSQL - San Carlos Airpo, California, USA
Distance from station: NW 21mi, 34km
Updated: Sat, 01-Oct-2022 4:55am PDT
Overcast
Overcast
 Wind from calm
Wind: Calm
Temperature: 59°F , 15°C
Dew Point: 55°F , 13°C
Humidity: 88%
Barometer: 29.84 inHg , 1010.5 hPa
Clouds: Overcast
Visibility: 10 miles , 16 km
Cloud details: Overcast 900 ft
2022/10/01 11:55 KSQL 011155Z AUTO 00000KT 10SM OVC009 15/13 A2984 RMK AO2
 
KSFO - San Francisco, California, USA
Distance from station: NW 30mi, 49km
Updated: Sat, 01-Oct-2022 4:56am PDT
Partly cloudy
Partly cloudy
 Wind from WNW
Wind: WNW 7 mph , 11 km/h
Temperature: 55°F , 13°C
Dew Point: 54°F , 12°C
Humidity: 94%
Barometer: 29.83 inHg , 1010.2 hPa
Clouds: Partly cloudy
Visibility: 10 miles , 16 km
Cloud details: Few Clouds 500 ft
Partly cloudy 2500 ft
2022/10/01 11:56 KSFO 011156Z 29006KT 10SM FEW005 SCT025 13/12 A2983 RMK AO2 SLP101 T01330117 10139 20128 51003
KE16 - San Martin, California, USA
Distance from station: ESE 27mi, 43km
Updated: Sat, 01-Oct-2022 4:55am PDT
Overcast
Overcast
 Wind from SE
Wind: SE 9 mph , 15 km/h
Temperature: 55°F , 13°C
Dew Point: 54°F , 12°C
Humidity: 94%
Barometer: 29.86 inHg , 1011.2 hPa
Clouds: Overcast
Visibility: 10 miles , 16 km
Cloud details: Overcast 400 ft
2022/10/01 11:55 KE16 011155Z AUTO 13008KT 10SM OVC004 13/12 A2986 RMK AO2 PWINO PNO
KWVI - Watsonville, California, USA
Distance from station: SSE 27mi, 44km
Updated: Sat, 01-Oct-2022 4:53am PDT
Overcast
Overcast
 Wind from calm
Wind: Calm
Temperature: 54°F , 12°C
Dew Point: 54°F , 12°C
Humidity: 100%
Barometer: 29.85 inHg , 1010.8 hPa
Clouds: Overcast
Visibility: 9 miles , 14 km
Cloud details: Overcast 400 ft
2022/10/01 11:53 KWVI 011153Z AUTO 00000KT 9SM OVC004 12/12 A2985 RMK AO2 SLP108 T01170117 10128 20117 58002
 
KHAF - Half Moon Bay, California, USA
Distance from station: WNW 31mi, 50km
Updated: Sat, 01-Oct-2022 4:55am PDT
Mist, Overcast
Mist, Overcast
 Wind from SE
Wind: SE 7 mph , 11 km/h
Temperature: 55°F , 13°C
Dew Point: 55°F , 13°C
Humidity: 100%
Barometer: 29.84 inHg , 1010.5 hPa
Summary: Mist
Clouds: Overcast
Visibility: 1 3/4 miles , 2.8 km
Cloud details: Overcast 300 ft
2022/10/01 11:55 KHAF 011155Z AUTO 13006KT 1 3/4SM BR OVC003 13/13 A2984 RMK AO2
KHWD - Hayward, California, USA
Distance from station: N 28mi, 44km
Updated: Sat, 01-Oct-2022 4:54am PDT
Overcast
Overcast
 Wind from N
Wind: N 3 mph , 6 km/h
Temperature: 57°F , 14°C
Dew Point: 55°F , 13°C
Humidity: 94%
Barometer: 29.83 inHg , 1010.2 hPa
Clouds: Overcast
Visibility: 10 miles , 16 km
Cloud details: Overcast 700 ft
2022/10/01 11:54 KHWD 011154Z 01003KT 10SM OVC007 14/13 A2983 RMK AO2 SLP109 T01440133 10150 20139 51002
KLVK - Livermore, California, USA
Distance from station: NNE 31mi, 51km
Updated: Sat, 01-Oct-2022 4:53am PDT
Clear
Clear
 Wind from WNW
Wind: WNW 5 mph , 7 km/h
Temperature: 57°F , 14°C
Dew Point: 52°F , 11°C
Humidity: 82%
Barometer: 29.81 inHg , 1009.5 hPa
Clouds: Clear
Visibility: 10 miles , 16 km
2022/10/01 11:53 KLVK 011153Z AUTO 29004KT 10SM CLR 14/11 A2981 RMK AO2 SLP090 T01440111 10200 20144 51002